createdAt,value
2023-03-29T00:00:36.858Z,2.40
2023-03-29T00:01:42.001Z,2.34
2023-03-29T00:02:48.825Z,2.39
2023-03-29T00:03:52.009Z,2.35
2023-03-29T00:04:54.474Z,2.39
2023-03-29T00:06:05.610Z,2.39
2023-03-29T00:07:07.832Z,2.32
2023-03-29T00:08:14.671Z,2.35
2023-03-29T00:09:18.316Z,2.40
2023-03-29T00:10:23.959Z,2.39
2023-03-29T00:11:27.387Z,2.38
2023-03-29T00:12:29.555Z,2.38
2023-03-29T00:13:31.921Z,2.38
2023-03-29T00:14:34.241Z,2.41
2023-03-29T00:15:36.450Z,2.42
2023-03-29T00:16:38.749Z,2.42
2023-03-29T00:17:41.517Z,2.36
2023-03-29T00:18:44.703Z,2.40
2023-03-29T00:19:50.006Z,2.43
2023-03-29T00:20:59.835Z,2.38
2023-03-29T00:22:05.865Z,2.43
2023-03-29T00:23:08.470Z,2.41
2023-03-29T00:24:10.780Z,2.42
2023-03-29T00:25:13.882Z,2.46
2023-03-29T00:26:16.698Z,2.55
2023-03-29T00:27:18.871Z,2.62
2023-03-29T00:28:21.450Z,2.70
2023-03-29T00:29:23.684Z,2.69
2023-03-29T00:30:26.172Z,2.76
2023-03-29T00:31:28.642Z,2.70
2023-03-29T00:32:32.282Z,2.64
2023-03-29T00:33:34.979Z,2.65
2023-03-29T00:34:37.254Z,2.62
2023-03-29T00:35:39.760Z,2.48
2023-03-29T00:36:43.176Z,2.50
2023-03-29T00:37:47.227Z,2.52
2023-03-29T00:38:49.651Z,2.47
2023-03-29T00:39:52.572Z,2.38
2023-03-29T00:40:54.955Z,2.38
2023-03-29T00:41:57.114Z,2.37
2023-03-29T00:43:00.538Z,2.34
2023-03-29T00:44:04.676Z,2.31
2023-03-29T00:45:09.670Z,2.23
2023-03-29T00:46:12.084Z,2.23
2023-03-29T00:47:14.525Z,2.18
2023-03-29T00:48:24.567Z,2.17
2023-03-29T00:49:27.478Z,2.22
2023-03-29T00:50:36.241Z,2.30
2023-03-29T00:51:41.426Z,2.28
2023-03-29T00:52:48.674Z,2.33
2023-03-29T00:53:56.302Z,2.23
2023-03-29T00:55:01.551Z,2.24
2023-03-29T00:56:14.006Z,2.16
2023-03-29T00:57:19.206Z,2.09
2023-03-29T00:58:40.613Z,2.07
2023-03-29T00:59:44.859Z,2.07
2023-03-29T01:01:02.220Z,2.12
2023-03-29T01:02:07.224Z,2.12
2023-03-29T01:03:13.756Z,2.11
2023-03-29T01:04:24.264Z,2.10
2023-03-29T01:05:31.577Z,2.07
2023-03-29T01:06:39.263Z,2.12
2023-03-29T01:07:57.894Z,2.19
2023-03-29T01:09:03.338Z,2.22
2023-03-29T01:10:31.688Z,2.18
2023-03-29T01:11:51.378Z,2.04
2023-03-29T01:13:00.454Z,2.04
2023-03-29T01:14:12.526Z,2.07
2023-03-29T01:15:19.938Z,2.03
2023-03-29T01:16:25.733Z,2.08
2023-03-29T01:17:31.622Z,2.18
2023-03-29T01:18:34.035Z,2.28
2023-03-29T01:19:44.258Z,2.37
2023-03-29T01:20:56.320Z,2.40
2023-03-29T01:22:32.152Z,2.44
2023-03-29T01:23:51.051Z,2.39
2023-03-29T01:25:00.989Z,2.32
2023-03-29T01:26:17.387Z,2.39
2023-03-29T01:27:47.433Z,2.44
2023-03-29T01:28:57.584Z,2.44
2023-03-29T01:30:05.675Z,2.40
2023-03-29T01:31:17.452Z,2.45
2023-03-29T01:32:27.978Z,2.35
2023-03-29T01:33:49.324Z,2.37
2023-03-29T01:35:00.143Z,2.36
2023-03-29T01:36:27.114Z,2.31
2023-03-29T01:37:37.567Z,2.28
2023-03-29T01:38:50.688Z,2.26
2023-03-29T01:39:53.603Z,2.38
2023-03-29T01:40:55.961Z,2.39
2023-03-29T01:42:16.786Z,2.37
2023-03-29T01:43:51.398Z,2.32
2023-03-29T01:45:15.474Z,2.33
2023-03-29T01:46:36.336Z,2.34
2023-03-29T01:47:46.432Z,2.29
2023-03-29T01:48:59.545Z,2.29
2023-03-29T01:50:13.460Z,2.20
2023-03-29T01:51:32.163Z,2.13
2023-03-29T01:52:49.494Z,2.19
2023-03-29T01:54:03.134Z,2.13
2023-03-29T01:55:20.666Z,2.24
2023-03-29T01:56:28.174Z,2.27
2023-03-29T01:57:33.559Z,2.26
2023-03-29T01:58:40.927Z,2.30
2023-03-29T01:59:47.270Z,2.19
2023-03-29T02:00:54.136Z,2.23
2023-03-29T02:02:00.535Z,2.18
2023-03-29T02:03:09.005Z,2.32
2023-03-29T02:04:14.197Z,2.31
2023-03-29T02:05:17.920Z,2.34
2023-03-29T02:06:23.854Z,2.41
2023-03-29T02:07:30.679Z,2.43
2023-03-29T02:08:33.033Z,2.51
2023-03-29T02:09:37.756Z,2.54
2023-03-29T02:10:40.776Z,2.49
2023-03-29T02:11:44.873Z,2.39
2023-03-29T02:12:47.768Z,2.34
2023-03-29T02:13:49.934Z,2.38
2023-03-29T02:14:52.161Z,2.24
2023-03-29T02:15:54.886Z,2.30
2023-03-29T02:16:57.124Z,2.34
2023-03-29T02:17:59.650Z,2.36
2023-03-29T02:19:02.822Z,2.41
2023-03-29T02:20:14.722Z,2.37
2023-03-29T02:21:40.553Z,2.49
2023-03-29T02:23:05.863Z,2.54
2023-03-29T02:24:13.367Z,2.54
2023-03-29T02:25:17.556Z,2.55
2023-03-29T02:26:20.727Z,2.45
2023-03-29T02:27:22.988Z,2.45
2023-03-29T02:28:27.023Z,2.37
2023-03-29T02:29:29.642Z,2.45
2023-03-29T02:31:03.602Z,2.44
2023-03-29T02:32:16.750Z,2.48
2023-03-29T02:33:31.202Z,2.57
2023-03-29T02:35:00.124Z,2.65
2023-03-29T02:36:08.547Z,2.68
2023-03-29T02:37:15.698Z,2.71
2023-03-29T02:38:18.791Z,2.61
2023-03-29T02:39:22.881Z,2.66
2023-03-29T02:40:27.279Z,2.63
2023-03-29T02:41:29.937Z,2.70
2023-03-29T02:42:32.171Z,2.65
2023-03-29T02:43:36.645Z,2.63
2023-03-29T02:44:41.992Z,2.64
2023-03-29T02:45:45.982Z,2.52
2023-03-29T02:46:52.531Z,2.54
2023-03-29T02:48:03.428Z,2.51
2023-03-29T02:49:05.794Z,2.51
2023-03-29T02:50:08.694Z,2.55
2023-03-29T02:51:24.625Z,2.66
2023-03-29T02:52:34.215Z,2.62
2023-03-29T02:53:45.864Z,2.63
2023-03-29T02:54:51.307Z,2.56
2023-03-29T02:55:53.870Z,2.71
2023-03-29T02:57:03.760Z,2.70
2023-03-29T02:58:08.827Z,2.73
2023-03-29T02:59:12.832Z,2.62
2023-03-29T03:00:19.699Z,2.58
2023-03-29T03:01:23.212Z,2.62
2023-03-29T03:02:26.219Z,2.65
2023-03-29T03:03:29.841Z,2.67
2023-03-29T03:04:35.725Z,2.77
2023-03-29T03:05:38.827Z,2.80
2023-03-29T03:06:42.168Z,2.85
2023-03-29T03:07:46.185Z,2.90
2023-03-29T03:08:49.200Z,2.86
2023-03-29T03:09:51.921Z,2.89
2023-03-29T03:10:54.335Z,2.94
2023-03-29T03:11:56.987Z,3.02
2023-03-29T03:13:01.096Z,3.06
2023-03-29T03:14:06.806Z,3.10
2023-03-29T03:15:10.561Z,3.06
2023-03-29T03:16:15.421Z,2.98
2023-03-29T03:17:19.021Z,2.94
2023-03-29T03:18:23.393Z,2.90
2023-03-29T03:19:25.931Z,2.88
2023-03-29T03:20:28.315Z,2.93
2023-03-29T03:21:31.183Z,2.98
2023-03-29T03:22:35.079Z,3.01
2023-03-29T03:23:37.365Z,3.04
2023-03-29T03:24:41.486Z,3.06
2023-03-29T03:25:44.983Z,3.00
2023-03-29T03:26:47.628Z,3.01
2023-03-29T03:27:50.888Z,2.88
2023-03-29T03:28:56.802Z,2.85
2023-03-29T03:30:31.637Z,2.84
2023-03-29T03:31:57.156Z,2.91
2023-03-29T03:33:30.353Z,2.82
2023-03-29T03:35:02.685Z,2.72
2023-03-29T03:36:06.498Z,2.69
2023-03-29T03:37:12.329Z,2.55
2023-03-29T03:38:15.299Z,2.52
2023-03-29T03:39:19.308Z,2.44
2023-03-29T03:40:22.097Z,2.51
2023-03-29T03:41:26.140Z,2.52
2023-03-29T03:42:29.834Z,2.51
2023-03-29T03:43:33.930Z,2.49
2023-03-29T03:44:36.545Z,2.44
2023-03-29T03:45:59.285Z,2.40
2023-03-29T03:47:01.701Z,2.46
2023-03-29T03:48:04.267Z,2.42
2023-03-29T03:49:22.427Z,2.37
2023-03-29T03:50:24.798Z,2.50
2023-03-29T03:51:27.234Z,2.45
2023-03-29T03:52:30.043Z,2.43
2023-03-29T03:53:32.249Z,2.44
2023-03-29T03:54:50.297Z,2.42
2023-03-29T03:56:13.961Z,2.49
2023-03-29T03:57:40.041Z,2.48
2023-03-29T03:58:47.620Z,2.48
2023-03-29T03:59:53.125Z,2.48
2023-03-29T04:01:02.292Z,2.36
2023-03-29T04:02:15.917Z,2.42
2023-03-29T04:03:19.917Z,2.49
2023-03-29T04:04:23.613Z,2.38
2023-03-29T04:05:47.103Z,2.36
2023-03-29T04:06:50.898Z,2.38
2023-03-29T04:08:09.323Z,2.39
2023-03-29T04:09:33.413Z,2.33
2023-03-29T04:10:59.946Z,2.33
2023-03-29T04:12:10.715Z,2.39
2023-03-29T04:13:14.859Z,2.41
2023-03-29T04:14:40.418Z,2.44
2023-03-29T04:15:49.756Z,2.45
2023-03-29T04:16:53.314Z,2.36
2023-03-29T04:18:18.373Z,2.33
2023-03-29T04:19:27.039Z,2.39
2023-03-29T04:20:29.774Z,2.43
2023-03-29T04:21:34.448Z,2.47
2023-03-29T04:22:36.897Z,2.44
2023-03-29T04:23:39.201Z,2.44
2023-03-29T04:24:41.589Z,2.44
2023-03-29T04:26:06.511Z,2.53
2023-03-29T04:27:21.012Z,2.54
2023-03-29T04:28:23.579Z,2.57
2023-03-29T04:29:44.971Z,2.64
2023-03-29T04:31:01.680Z,2.64
2023-03-29T04:32:13.304Z,2.70
2023-03-29T04:33:38.713Z,2.71
2023-03-29T04:34:40.955Z,2.81
2023-03-29T04:35:43.492Z,2.78
2023-03-29T04:36:52.326Z,2.76
2023-03-29T04:37:58.395Z,2.61
2023-03-29T04:39:01.844Z,2.62
2023-03-29T04:40:08.703Z,2.69
2023-03-29T04:41:23.772Z,2.69
2023-03-29T04:42:39.463Z,2.64
2023-03-29T04:43:46.803Z,2.68
2023-03-29T04:44:57.502Z,2.64
2023-03-29T04:46:15.628Z,2.74
2023-03-29T04:47:32.800Z,2.69
2023-03-29T04:48:45.529Z,2.66
2023-03-29T04:49:48.617Z,2.69
2023-03-29T04:50:59.846Z,2.62
2023-03-29T04:52:02.228Z,2.63
2023-03-29T04:53:07.412Z,2.69
2023-03-29T04:54:10.502Z,2.73
2023-03-29T04:55:30.945Z,2.76
2023-03-29T04:56:37.988Z,2.79
2023-03-29T04:58:07.898Z,2.79
2023-03-29T04:59:12.715Z,2.79
2023-03-29T05:00:15.749Z,2.88
2023-03-29T05:01:33.613Z,2.99
2023-03-29T05:02:36.730Z,3.04
2023-03-29T05:03:39.505Z,3.04
2023-03-29T05:04:53.892Z,3.07
2023-03-29T05:06:01.835Z,3.04
2023-03-29T05:07:04.504Z,2.99
2023-03-29T05:08:07.390Z,3.04
2023-03-29T05:09:19.979Z,3.17
2023-03-29T05:10:26.620Z,3.26
2023-03-29T05:11:29.343Z,3.26
2023-03-29T05:12:31.601Z,3.24
2023-03-29T05:13:34.469Z,3.19
2023-03-29T05:14:37.020Z,3.20
2023-03-29T05:15:41.229Z,3.30
2023-03-29T05:16:44.171Z,3.31
2023-03-29T05:17:47.726Z,3.32
2023-03-29T05:18:51.744Z,3.39
2023-03-29T05:19:54.908Z,3.32
2023-03-29T05:21:00.421Z,3.34
2023-03-29T05:22:03.870Z,3.33
2023-03-29T05:23:07.957Z,3.36
2023-03-29T05:24:44.975Z,3.32
2023-03-29T05:25:53.587Z,3.33
2023-03-29T05:26:56.443Z,3.32
2023-03-29T05:27:59.971Z,3.29
2023-03-29T05:29:02.680Z,3.36
2023-03-29T05:30:05.482Z,3.49
2023-03-29T05:31:17.278Z,3.55
2023-03-29T05:32:22.242Z,3.57
2023-03-29T05:33:24.498Z,3.58
2023-03-29T05:34:27.276Z,3.67
2023-03-29T05:35:33.709Z,3.62
2023-03-29T05:36:39.113Z,3.66
2023-03-29T05:37:42.290Z,3.62
2023-03-29T05:38:46.617Z,3.62
2023-03-29T05:39:49.687Z,3.68
2023-03-29T05:40:56.548Z,3.65
2023-03-29T05:42:07.593Z,3.61
2023-03-29T05:43:22.531Z,3.64
2023-03-29T05:44:24.885Z,3.75
2023-03-29T05:45:34.191Z,3.72
2023-03-29T05:46:37.537Z,3.72
2023-03-29T05:47:39.867Z,3.78
2023-03-29T05:48:42.617Z,3.72
2023-03-29T05:49:46.243Z,3.82
2023-03-29T05:50:54.048Z,3.87
2023-03-29T05:51:57.152Z,3.85
2023-03-29T05:53:00.748Z,3.84
2023-03-29T05:54:03.363Z,3.85
2023-03-29T05:55:06.004Z,3.94
2023-03-29T05:56:09.076Z,3.91
2023-03-29T05:57:12.190Z,3.89
2023-03-29T05:58:17.995Z,3.88
2023-03-29T05:59:21.376Z,3.79
2023-03-29T06:00:24.349Z,3.78
2023-03-29T06:01:33.730Z,3.76
2023-03-29T06:02:41.892Z,3.88
2023-03-29T06:03:46.333Z,3.92
2023-03-29T06:04:49.291Z,3.94
2023-03-29T06:06:00.477Z,3.96
2023-03-29T06:07:05.007Z,4.00
2023-03-29T06:08:08.909Z,4.09
2023-03-29T06:09:11.253Z,4.23
2023-03-29T06:10:27.464Z,4.32
2023-03-29T06:11:41.108Z,4.23
2023-03-29T06:12:49.740Z,4.16
2023-03-29T06:13:53.643Z,4.20
2023-03-29T06:14:58.219Z,4.23
2023-03-29T06:16:18.740Z,4.29
2023-03-29T06:17:21.392Z,4.37
2023-03-29T06:18:24.623Z,4.48
2023-03-29T06:19:26.849Z,4.55
2023-03-29T06:20:30.223Z,4.64
2023-03-29T06:21:38.331Z,4.81
2023-03-29T06:22:42.588Z,4.90
2023-03-29T06:23:47.417Z,4.86
2023-03-29T06:24:51.361Z,4.98
2023-03-29T06:26:00.248Z,5.05
2023-03-29T06:27:02.800Z,5.08
2023-03-29T06:28:06.304Z,5.17
2023-03-29T06:29:10.334Z,5.27
2023-03-29T06:30:16.478Z,5.36
2023-03-29T06:31:23.296Z,5.35
2023-03-29T06:32:28.446Z,5.44
2023-03-29T06:33:43.190Z,5.51
2023-03-29T06:35:06.257Z,5.61
2023-03-29T06:36:13.975Z,5.56
2023-03-29T06:37:16.572Z,5.64
2023-03-29T06:38:20.832Z,5.69
2023-03-29T06:39:43.685Z,5.81
2023-03-29T06:41:07.242Z,5.82
2023-03-29T06:42:30.012Z,5.81
2023-03-29T06:43:55.373Z,6.01
2023-03-29T06:45:00.383Z,6.13
2023-03-29T06:46:02.689Z,6.16
2023-03-29T06:47:19.424Z,6.07
2023-03-29T06:48:22.037Z,6.19
2023-03-29T06:49:24.203Z,6.30
2023-03-29T06:50:44.010Z,6.31
2023-03-29T06:51:49.225Z,6.32
2023-03-29T06:52:52.789Z,6.44
2023-03-29T06:53:55.295Z,6.48
2023-03-29T06:54:57.997Z,6.68
2023-03-29T06:56:05.318Z,6.74
2023-03-29T06:57:18.680Z,6.84
2023-03-29T06:58:22.043Z,6.79
2023-03-29T06:59:24.421Z,6.85
2023-03-29T07:00:47.509Z,7.02
2023-03-29T07:01:57.815Z,7.08
2023-03-29T07:03:20.073Z,7.18
2023-03-29T07:04:25.397Z,7.19
2023-03-29T07:06:01.129Z,7.25
2023-03-29T07:07:05.929Z,7.32
2023-03-29T07:08:10.021Z,7.39
2023-03-29T07:09:22.192Z,7.53
2023-03-29T07:10:47.600Z,7.44
2023-03-29T07:12:14.951Z,7.30
2023-03-29T07:13:17.366Z,7.26
2023-03-29T07:14:20.035Z,7.35
2023-03-29T07:15:22.530Z,7.42
2023-03-29T07:16:43.347Z,7.35
2023-03-29T07:18:04.773Z,7.51
2023-03-29T07:19:09.247Z,7.63
2023-03-29T07:20:27.112Z,7.76
2023-03-29T07:21:40.534Z,7.88
2023-03-29T07:22:44.072Z,7.93
2023-03-29T07:23:46.347Z,7.95
2023-03-29T07:24:49.334Z,7.98
2023-03-29T07:25:51.577Z,8.12
2023-03-29T07:27:03.218Z,8.15
2023-03-29T07:28:07.901Z,8.30
2023-03-29T07:29:11.777Z,8.36
2023-03-29T07:30:19.257Z,8.35
2023-03-29T07:31:21.819Z,8.48
2023-03-29T07:32:31.663Z,8.57
2023-03-29T07:33:56.861Z,8.63
2023-03-29T07:35:01.569Z,8.75
2023-03-29T07:36:11.219Z,8.85
2023-03-29T07:37:13.597Z,9.02
2023-03-29T07:38:18.564Z,8.94
2023-03-29T07:39:31.027Z,9.15
2023-03-29T07:40:56.448Z,9.32
2023-03-29T07:42:17.205Z,9.47
2023-03-29T07:43:20.964Z,9.51
2023-03-29T07:44:23.688Z,9.59
2023-03-29T07:45:29.103Z,9.57
2023-03-29T07:46:39.189Z,9.63
2023-03-29T07:47:42.068Z,9.70
2023-03-29T07:48:44.391Z,9.68
2023-03-29T07:49:49.269Z,9.71
2023-03-29T07:50:52.033Z,9.71
2023-03-29T07:51:58.944Z,9.82
2023-03-29T07:53:02.153Z,9.77
2023-03-29T07:54:06.454Z,9.96
2023-03-29T07:55:10.452Z,10.05
2023-03-29T07:56:30.737Z,10.17
2023-03-29T07:57:45.754Z,10.15
2023-03-29T07:58:48.161Z,9.96
2023-03-29T07:59:52.988Z,10.00
2023-03-29T08:01:03.683Z,10.17
2023-03-29T08:02:25.108Z,10.12
2023-03-29T08:03:31.159Z,10.09
2023-03-29T08:04:33.590Z,10.02
2023-03-29T08:05:51.649Z,10.21
2023-03-29T08:06:54.232Z,10.33
2023-03-29T08:07:59.748Z,10.24
2023-03-29T08:09:18.627Z,10.32
2023-03-29T08:10:22.410Z,10.27
2023-03-29T08:11:40.154Z,10.22
2023-03-29T08:12:50.860Z,10.38
2023-03-29T08:13:55.616Z,10.26
2023-03-29T08:15:38.468Z,10.35
2023-03-29T08:16:44.641Z,10.41
2023-03-29T08:17:50.601Z,10.46
2023-03-29T08:18:53.668Z,10.44
2023-03-29T08:19:58.142Z,10.49
2023-03-29T08:21:00.591Z,10.48
2023-03-29T08:22:04.045Z,10.41
2023-03-29T08:23:26.210Z,10.33
2023-03-29T08:24:55.322Z,10.45
2023-03-29T08:26:00.756Z,10.44
2023-03-29T08:27:03.335Z,10.49
2023-03-29T08:28:05.578Z,10.62
2023-03-29T08:29:27.532Z,10.78
2023-03-29T08:30:30.485Z,10.95
2023-03-29T08:31:33.647Z,11.01
2023-03-29T08:32:37.822Z,11.08
2023-03-29T08:33:42.863Z,11.28
2023-03-29T08:35:05.092Z,11.28
2023-03-29T08:36:13.416Z,11.36
2023-03-29T08:37:16.579Z,11.47
2023-03-29T08:38:22.628Z,11.68
2023-03-29T08:39:25.955Z,11.68
2023-03-29T08:40:48.849Z,11.73
2023-03-29T08:42:45.021Z,11.86
2023-03-29T08:44:32.824Z,11.52
2023-03-29T08:45:53.820Z,11.53
2023-03-29T08:47:18.204Z,11.69
2023-03-29T08:48:28.665Z,11.47
2023-03-29T08:49:31.807Z,11.53
2023-03-29T08:50:40.872Z,11.58
2023-03-29T08:51:47.893Z,11.54
2023-03-29T08:53:02.228Z,11.49
2023-03-29T08:54:41.599Z,11.52
2023-03-29T08:55:48.715Z,11.78
2023-03-29T08:57:45.716Z,12.01
2023-03-29T08:58:55.253Z,11.95
2023-03-29T09:00:04.540Z,11.92
2023-03-29T09:01:09.470Z,11.95
2023-03-29T09:02:27.766Z,11.92
2023-03-29T09:03:48.982Z,12.03
2023-03-29T09:05:09.130Z,12.02
2023-03-29T09:06:22.019Z,12.12
2023-03-29T09:07:27.354Z,12.18
2023-03-29T09:08:31.112Z,12.33
2023-03-29T09:09:34.624Z,12.24
2023-03-29T09:11:05.054Z,12.28
2023-03-29T09:12:24.655Z,12.38
2023-03-29T09:13:39.077Z,12.19
2023-03-29T09:15:09.693Z,12.19
2023-03-29T09:16:55.412Z,12.08
2023-03-29T09:18:16.148Z,11.98
2023-03-29T09:19:30.382Z,11.97
2023-03-29T09:21:06.159Z,12.05
2023-03-29T09:22:42.069Z,12.14
2023-03-29T09:23:54.680Z,12.31
2023-03-29T09:25:25.251Z,12.47
2023-03-29T09:26:37.060Z,12.42
2023-03-29T09:28:18.702Z,12.49
2023-03-29T09:29:44.990Z,12.63
2023-03-29T09:31:11.506Z,12.70
2023-03-29T09:32:20.530Z,12.60
2023-03-29T09:33:34.682Z,12.61
2023-03-29T09:35:09.589Z,12.87
2023-03-29T09:36:27.199Z,12.94
2023-03-29T09:37:38.364Z,13.05
2023-03-29T09:38:43.693Z,12.85
2023-03-29T09:39:46.510Z,12.83
2023-03-29T09:41:00.752Z,12.57
2023-03-29T09:42:09.326Z,12.42
2023-03-29T09:43:18.411Z,12.34
2023-03-29T09:44:30.720Z,12.15
2023-03-29T09:45:41.992Z,12.27
2023-03-29T09:46:52.111Z,12.29
2023-03-29T09:48:11.415Z,12.34
2023-03-29T09:49:23.538Z,12.41
2023-03-29T09:50:34.059Z,12.29
2023-03-29T09:51:42.099Z,12.41
2023-03-29T09:52:46.300Z,12.44
2023-03-29T09:53:57.409Z,12.48
2023-03-29T09:55:29.466Z,12.40
2023-03-29T09:56:40.809Z,12.34
2023-03-29T09:57:46.589Z,12.35
2023-03-29T09:58:50.373Z,12.27
2023-03-29T09:59:54.630Z,12.23
2023-03-29T10:01:03.156Z,12.26
2023-03-29T10:02:11.960Z,12.20
2023-03-29T10:03:22.377Z,12.21
2023-03-29T10:04:35.462Z,11.97
2023-03-29T10:05:38.059Z,11.63
2023-03-29T10:06:50.525Z,11.52
2023-03-29T10:07:59.907Z,11.46
2023-03-29T10:09:04.381Z,11.40
2023-03-29T10:10:30.864Z,11.58
2023-03-29T10:11:38.397Z,11.63
2023-03-29T10:12:41.684Z,11.71
2023-03-29T10:13:49.194Z,11.73
2023-03-29T10:14:54.251Z,11.75
2023-03-29T10:16:01.801Z,11.73
2023-03-29T10:17:11.649Z,11.75
2023-03-29T10:18:14.515Z,11.54
2023-03-29T10:19:23.467Z,11.76
2023-03-29T10:20:25.957Z,11.92
2023-03-29T10:21:29.352Z,11.99
2023-03-29T10:22:37.831Z,12.13
2023-03-29T10:23:40.248Z,12.21
2023-03-29T10:24:52.089Z,12.14
2023-03-29T10:25:54.294Z,11.95
2023-03-29T10:27:02.831Z,11.89
2023-03-29T10:28:10.186Z,12.08
2023-03-29T10:29:13.471Z,12.10
2023-03-29T10:30:22.639Z,12.04
2023-03-29T10:31:25.780Z,11.85
2023-03-29T10:32:34.764Z,11.76
2023-03-29T10:33:37.383Z,11.82
2023-03-29T10:34:39.607Z,11.76
2023-03-29T10:35:42.823Z,11.67
2023-03-29T10:36:53.685Z,11.56
2023-03-29T10:37:59.262Z,11.64
2023-03-29T10:39:06.183Z,11.73
2023-03-29T10:40:41.390Z,11.74
2023-03-29T10:41:44.769Z,11.85
2023-03-29T10:42:49.953Z,11.99
2023-03-29T10:43:52.360Z,12.08
2023-03-29T10:44:59.541Z,12.16
2023-03-29T10:46:19.511Z,12.06
2023-03-29T10:47:22.707Z,12.04
2023-03-29T10:48:30.135Z,11.91
2023-03-29T10:49:41.479Z,11.89
2023-03-29T10:50:50.475Z,11.86
2023-03-29T10:51:52.681Z,11.89
2023-03-29T10:52:55.137Z,11.52
2023-03-29T10:53:59.253Z,11.45
2023-03-29T10:55:01.588Z,11.57
2023-03-29T10:56:52.005Z,11.74
2023-03-29T10:58:16.721Z,11.67
2023-03-29T10:59:29.784Z,11.65
2023-03-29T11:00:40.797Z,11.70
2023-03-29T11:02:04.171Z,11.84
2023-03-29T11:03:40.259Z,11.97
2023-03-29T11:04:46.612Z,11.88
2023-03-29T11:06:04.178Z,11.78
2023-03-29T11:07:24.309Z,11.50
2023-03-29T11:08:48.017Z,11.48
2023-03-29T11:10:14.770Z,11.58
2023-03-29T11:11:45.379Z,11.69
2023-03-29T11:13:18.367Z,11.82
2023-03-29T11:14:49.683Z,11.78
2023-03-29T11:15:54.593Z,11.68
2023-03-29T11:17:27.945Z,11.77
2023-03-29T11:18:45.388Z,11.78
2023-03-29T11:20:19.996Z,11.77
2023-03-29T11:21:37.923Z,11.84
2023-03-29T11:23:12.959Z,11.76
2023-03-29T11:24:33.961Z,11.88
2023-03-29T11:26:11.799Z,11.87
2023-03-29T11:27:29.727Z,11.61
2023-03-29T11:28:40.630Z,11.60
2023-03-29T11:29:51.950Z,11.63
2023-03-29T11:30:54.140Z,11.69
2023-03-29T11:32:19.012Z,11.44
2023-03-29T11:33:33.770Z,11.43
2023-03-29T11:35:19.399Z,11.08
2023-03-29T11:36:39.115Z,10.84
2023-03-29T11:38:05.725Z,10.96
2023-03-29T11:39:20.252Z,11.12
2023-03-29T11:40:39.308Z,11.35
2023-03-29T11:41:44.912Z,11.50
2023-03-29T11:42:50.719Z,11.68
2023-03-29T11:44:02.372Z,11.83
2023-03-29T11:45:06.078Z,11.85
2023-03-29T11:46:17.773Z,11.79
2023-03-29T11:47:27.439Z,11.71
2023-03-29T11:48:36.102Z,11.75
2023-03-29T11:49:41.758Z,11.91
2023-03-29T11:51:04.279Z,12.08
2023-03-29T11:52:26.487Z,12.17
2023-03-29T11:53:42.101Z,12.04
2023-03-29T11:55:08.237Z,12.19
2023-03-29T11:56:16.270Z,12.19
2023-03-29T11:57:31.009Z,12.20
2023-03-29T11:58:38.999Z,12.40
2023-03-29T11:59:46.147Z,12.43
2023-03-29T12:00:55.345Z,12.28
2023-03-29T12:02:10.642Z,12.16
2023-03-29T12:03:22.593Z,11.72
2023-03-29T12:04:31.474Z,11.81
2023-03-29T12:05:45.972Z,11.98
2023-03-29T12:07:01.891Z,12.06
2023-03-29T12:08:09.641Z,11.99
2023-03-29T12:09:14.195Z,11.90
2023-03-29T12:10:31.300Z,12.05
2023-03-29T12:11:49.192Z,11.94
2023-03-29T12:13:03.430Z,11.77
2023-03-29T12:14:14.580Z,11.91
2023-03-29T12:15:21.566Z,11.89
2023-03-29T12:16:26.735Z,12.07
2023-03-29T12:17:45.006Z,12.09
2023-03-29T12:18:51.385Z,12.00
2023-03-29T12:20:04.523Z,12.05
2023-03-29T12:21:21.827Z,11.86
2023-03-29T12:22:25.588Z,11.71
2023-03-29T12:23:32.543Z,11.60
2023-03-29T12:24:38.842Z,11.57
2023-03-29T12:25:44.796Z,11.73
2023-03-29T12:26:52.923Z,11.54
2023-03-29T12:28:03.724Z,11.48
2023-03-29T12:29:20.827Z,11.50
2023-03-29T12:30:38.531Z,11.38
2023-03-29T12:31:52.526Z,11.44
2023-03-29T12:33:16.486Z,11.59
2023-03-29T12:35:05.649Z,11.71
2023-03-29T12:36:48.697Z,11.57
2023-03-29T12:38:21.555Z,11.54
2023-03-29T12:39:43.039Z,11.73
2023-03-29T12:41:15.506Z,11.77
2023-03-29T12:42:59.003Z,11.87
2023-03-29T12:44:23.685Z,11.84
2023-03-29T12:45:38.749Z,11.91
2023-03-29T12:46:41.252Z,11.97
2023-03-29T12:47:46.172Z,12.12
2023-03-29T12:48:53.203Z,12.15
2023-03-29T12:49:58.275Z,12.15
2023-03-29T12:51:03.667Z,12.26
2023-03-29T12:52:32.479Z,12.29
2023-03-29T12:53:42.351Z,12.34
2023-03-29T12:54:55.889Z,12.41
2023-03-29T12:56:01.298Z,12.42
2023-03-29T12:57:28.587Z,12.63
2023-03-29T12:58:36.888Z,12.80
2023-03-29T12:59:43.977Z,12.87
2023-03-29T13:00:48.034Z,12.90
2023-03-29T13:02:04.550Z,12.79
2023-03-29T13:03:35.813Z,12.74
2023-03-29T13:04:55.068Z,12.51
2023-03-29T13:06:05.424Z,12.62
2023-03-29T13:07:33.365Z,12.65
2023-03-29T13:11:28.273Z,12.55
2023-03-29T13:12:40.493Z,12.35
2023-03-29T13:13:44.039Z,12.20
2023-03-29T13:15:16.826Z,12.25
2023-03-29T13:16:30.150Z,12.30
2023-03-29T13:18:12.290Z,12.29
2023-03-29T13:19:14.746Z,12.27
2023-03-29T13:20:47.299Z,12.26
2023-03-29T13:21:49.395Z,12.22
2023-03-29T13:23:07.331Z,12.30
2023-03-29T13:24:57.529Z,12.26
2023-03-29T13:26:22.167Z,12.28
2023-03-29T13:27:31.666Z,12.32
2023-03-29T13:28:37.208Z,12.20
2023-03-29T13:29:56.572Z,12.02
2023-03-29T13:31:11.490Z,12.07
2023-03-29T13:32:46.519Z,12.22
2023-03-29T13:34:01.357Z,12.37
2023-03-29T13:35:33.836Z,12.46
2023-03-29T13:36:48.117Z,12.62
2023-03-29T13:37:59.502Z,12.57
2023-03-29T13:39:05.653Z,12.12
2023-03-29T13:40:34.445Z,12.08
2023-03-29T13:41:39.219Z,12.15
2023-03-29T13:42:42.208Z,12.27
2023-03-29T13:43:44.813Z,12.27
2023-03-29T13:44:49.178Z,12.43
2023-03-29T13:45:57.644Z,12.51
2023-03-29T13:47:25.700Z,12.65
2023-03-29T13:48:30.752Z,12.78
2023-03-29T13:49:35.755Z,12.65
2023-03-29T13:50:51.550Z,12.59
2023-03-29T13:51:53.707Z,12.77
2023-03-29T13:53:03.991Z,12.84
2023-03-29T13:54:38.509Z,12.74
2023-03-29T13:55:59.581Z,12.51
2023-03-29T13:57:07.711Z,12.55
2023-03-29T13:58:16.016Z,12.54
2023-03-29T13:59:27.034Z,12.63
2023-03-29T14:01:00.353Z,12.67
2023-03-29T14:02:04.474Z,12.57
2023-03-29T14:03:14.896Z,12.48
2023-03-29T14:04:24.229Z,12.47
2023-03-29T14:05:34.115Z,12.34
2023-03-29T14:06:38.321Z,12.29
2023-03-29T14:07:50.188Z,12.38
2023-03-29T14:08:54.084Z,12.52
2023-03-29T14:09:58.942Z,12.57
2023-03-29T14:11:03.182Z,12.51
2023-03-29T14:12:07.973Z,12.61
2023-03-29T14:13:15.135Z,12.73
2023-03-29T14:14:23.940Z,12.81
2023-03-29T14:15:42.674Z,12.75
2023-03-29T14:16:45.051Z,12.79
2023-03-29T14:17:48.203Z,12.80
2023-03-29T14:18:52.567Z,12.73
2023-03-29T14:19:58.496Z,12.71
2023-03-29T14:21:01.683Z,12.77
2023-03-29T14:22:09.900Z,12.57
2023-03-29T14:23:19.589Z,12.34
2023-03-29T14:24:27.079Z,12.43
2023-03-29T14:25:29.736Z,12.52
2023-03-29T14:26:36.008Z,12.61
2023-03-29T14:27:38.383Z,12.75
2023-03-29T14:29:01.339Z,12.83
2023-03-29T14:30:21.815Z,12.69
2023-03-29T14:31:30.760Z,12.51
2023-03-29T14:32:33.069Z,12.52
2023-03-29T14:33:37.295Z,12.39
2023-03-29T14:34:40.184Z,12.39
2023-03-29T14:35:42.751Z,12.33
2023-03-29T14:36:48.966Z,12.29
2023-03-29T14:37:52.664Z,12.35
2023-03-29T14:39:02.941Z,12.37
2023-03-29T14:40:12.067Z,12.37
2023-03-29T14:41:14.759Z,12.39
2023-03-29T14:42:21.530Z,12.54
2023-03-29T14:43:27.363Z,12.61
2023-03-29T14:44:33.414Z,12.64
2023-03-29T14:45:36.685Z,12.60
2023-03-29T14:46:39.430Z,12.57
2023-03-29T14:47:44.896Z,12.52
2023-03-29T14:48:50.711Z,12.52
2023-03-29T14:49:56.101Z,12.58
2023-03-29T14:50:59.540Z,12.41
2023-03-29T14:52:02.277Z,12.23
2023-03-29T14:53:06.228Z,12.11
2023-03-29T14:54:16.930Z,12.13
2023-03-29T14:55:23.571Z,12.12
2023-03-29T14:56:32.535Z,12.14
2023-03-29T14:57:36.794Z,12.18
2023-03-29T14:58:40.200Z,12.21
2023-03-29T14:59:43.384Z,12.01
2023-03-29T15:00:50.063Z,11.97
2023-03-29T15:01:53.052Z,12.05
2023-03-29T15:03:02.031Z,11.98
2023-03-29T15:04:07.354Z,11.94
2023-03-29T15:05:25.574Z,11.78
2023-03-29T15:06:29.720Z,11.84
2023-03-29T15:07:37.211Z,11.81
2023-03-29T15:08:50.830Z,11.79
2023-03-29T15:10:01.314Z,11.82
2023-03-29T15:11:26.566Z,11.79
2023-03-29T15:12:30.740Z,11.87
2023-03-29T15:13:33.430Z,11.74
2023-03-29T15:14:38.209Z,11.73
2023-03-29T15:15:40.788Z,11.76
2023-03-29T15:16:46.984Z,11.76
2023-03-29T15:17:52.232Z,11.72
2023-03-29T15:18:55.232Z,11.48
2023-03-29T15:20:01.134Z,11.57
2023-03-29T15:21:04.761Z,11.62
2023-03-29T15:22:11.239Z,11.60
2023-03-29T15:23:16.626Z,11.57
2023-03-29T15:24:30.795Z,11.61
2023-03-29T15:25:38.723Z,11.68
2023-03-29T15:26:41.992Z,11.69